sensor_id;sensor_type;location;lat;lon;timestamp;pressure;altitude;pressure_sealevel;temperature;humidity
48517;BME280;34310;51.904;4.256;2023-02-26T00:01:28;102045.31;;;16.34;55.81
48517;BME280;34310;51.904;4.256;2023-02-26T00:03:59;102056.53;;;16.33;55.87
48517;BME280;34310;51.904;4.256;2023-02-26T00:06:28;102062.53;;;16.32;55.99
48517;BME280;34310;51.904;4.256;2023-02-26T00:08:57;102060.63;;;16.29;55.93
48517;BME280;34310;51.904;4.256;2023-02-26T00:11:25;102061.44;;;16.28;55.93
48517;BME280;34310;51.904;4.256;2023-02-26T00:13:52;102061.25;;;16.25;56.02
48517;BME280;34310;51.904;4.256;2023-02-26T00:18:57;102065.34;;;16.22;55.82
48517;BME280;34310;51.904;4.256;2023-02-26T00:21:26;102063.53;;;16.21;55.99
48517;BME280;34310;51.904;4.256;2023-02-26T00:23:54;102062.50;;;16.19;55.89
48517;BME280;34310;51.904;4.256;2023-02-26T00:26:23;102061.59;;;16.18;55.91
48517;BME280;34310;51.904;4.256;2023-02-26T00:28:51;102066.59;;;16.15;55.97
48517;BME280;34310;51.904;4.256;2023-02-26T00:31:19;102064.81;;;16.14;56.05
48517;BME280;34310;51.904;4.256;2023-02-26T00:33:52;102078.53;;;16.11;56.15
48517;BME280;34310;51.904;4.256;2023-02-26T00:36:24;102076.72;;;16.10;56.01
48517;BME280;34310;51.904;4.256;2023-02-26T00:41:29;102087.75;;;16.06;56.12
48517;BME280;34310;51.904;4.256;2023-02-26T00:43:57;102086.72;;;16.04;56.05
48517;BME280;34310;51.904;4.256;2023-02-26T00:46:43;102097.03;;;16.03;56.18
48517;BME280;34310;51.904;4.256;2023-02-26T00:54:23;102094.94;;;15.97;56.20
48517;BME280;34310;51.904;4.256;2023-02-26T00:56:52;102105.25;;;15.96;56.33
48517;BME280;34310;51.904;4.256;2023-02-26T00:59:21;102112.06;;;15.94;56.37
48517;BME280;34310;51.904;4.256;2023-02-26T01:01:49;102110.13;;;15.91;56.25
48517;BME280;34310;51.904;4.256;2023-02-26T01:04:20;102105.72;;;15.90;56.41
48517;BME280;34310;51.904;4.256;2023-02-26T01:06:51;102109.91;;;15.88;56.39
48517;BME280;34310;51.904;4.256;2023-02-26T01:11:53;102110.50;;;15.84;56.36
48517;BME280;34310;51.904;4.256;2023-02-26T01:14:21;102119.09;;;15.83;56.27
48517;BME280;34310;51.904;4.256;2023-02-26T01:17:24;102132.00;;;15.82;56.32
48517;BME280;34310;51.904;4.256;2023-02-26T01:20:02;102133.72;;;15.81;56.46
48517;BME280;34310;51.904;4.256;2023-02-26T01:22:39;102136.09;;;15.78;56.47
48517;BME280;34310;51.904;4.256;2023-02-26T01:25:14;102131.69;;;15.77;56.40
48517;BME280;34310;51.904;4.256;2023-02-26T01:27:42;102142.00;;;15.75;56.42
48517;BME280;34310;51.904;4.256;2023-02-26T01:30:10;102136.78;;;15.75;56.47
48517;BME280;34310;51.904;4.256;2023-02-26T01:33:06;102141.78;;;15.72;56.52
48517;BME280;34310;51.904;4.256;2023-02-26T01:35:40;102146.88;;;15.71;56.51
48517;BME280;34310;51.904;4.256;2023-02-26T01:46:43;102164.69;;;15.65;56.60
48517;BME280;34310;51.904;4.256;2023-02-26T01:49:13;102163.00;;;15.65;56.51
48517;BME280;34310;51.904;4.256;2023-02-26T01:54:16;102165.13;;;15.59;56.74
48517;BME280;34310;51.904;4.256;2023-02-26T01:56:49;102164.88;;;15.56;56.65
48517;BME280;34310;51.904;4.256;2023-02-26T01:59:19;102162.16;;;15.55;56.74
48517;BME280;34310;51.904;4.256;2023-02-26T02:01:56;102166.34;;;15.53;56.80
48517;BME280;34310;51.904;4.256;2023-02-26T02:04:24;102173.25;;;15.52;56.70
48517;BME280;34310;51.904;4.256;2023-02-26T02:06:53;102174.84;;;15.50;56.72
48517;BME280;34310;51.904;4.256;2023-02-26T02:09:21;102175.66;;;15.49;56.80
48517;BME280;34310;51.904;4.256;2023-02-26T02:15:10;102186.63;;;15.45;56.77
48517;BME280;34310;51.904;4.256;2023-02-26T02:23:41;102194.34;;;15.43;57.10
48517;BME280;34310;51.904;4.256;2023-02-26T02:28:55;102208.25;;;15.44;57.31
48517;BME280;34310;51.904;4.256;2023-02-26T02:39:59;102217.97;;;15.46;57.71
48517;BME280;34310;51.904;4.256;2023-02-26T02:42:32;102211.88;;;15.46;57.64
48517;BME280;34310;51.904;4.256;2023-02-26T02:45:08;102215.38;;;15.46;57.73
48517;BME280;34310;51.904;4.256;2023-02-26T02:47:40;102227.59;;;15.47;57.75
48517;BME280;34310;51.904;4.256;2023-02-26T02:50:13;102215.38;;;15.46;57.82
48517;BME280;34310;51.904;4.256;2023-02-26T02:55:38;102232.81;;;15.47;57.93
48517;BME280;34310;51.904;4.256;2023-02-26T02:58:14;102235.28;;;15.46;57.93
48517;BME280;34310;51.904;4.256;2023-02-26T03:00:48;102237.00;;;15.45;57.81
48517;BME280;34310;51.904;4.256;2023-02-26T03:03:27;102242.31;;;15.47;57.77
48517;BME280;34310;51.904;4.256;2023-02-26T03:05:56;102237.09;;;15.47;57.76
48517;BME280;34310;51.904;4.256;2023-02-26T03:08:27;102239.59;;;15.45;57.72
48517;BME280;34310;51.904;4.256;2023-02-26T03:10:56;102243.91;;;15.45;57.73
48517;BME280;34310;51.904;4.256;2023-02-26T03:13:25;102251.59;;;15.43;57.72
48517;BME280;34310;51.904;4.256;2023-02-26T03:22:06;102255.91;;;15.43;57.74
48517;BME280;34310;51.904;4.256;2023-02-26T03:24:39;102255.91;;;15.43;57.72
48517;BME280;34310;51.904;4.256;2023-02-26T03:30:03;102254.19;;;15.43;57.67
48517;BME280;34310;51.904;4.256;2023-02-26T03:32:42;102256.69;;;15.42;57.65
48517;BME280;34310;51.904;4.256;2023-02-26T03:35:17;102258.50;;;15.43;57.55
48517;BME280;34310;51.904;4.256;2023-02-26T03:37:48;102264.63;;;15.43;57.54
48517;BME280;34310;51.904;4.256;2023-02-26T03:40:24;102263.69;;;15.43;57.72
48517;BME280;34310;51.904;4.256;2023-02-26T03:43:13;102269.03;;;15.44;57.66
48517;BME280;34310;51.904;4.256;2023-02-26T03:45:43;102269.03;;;15.44;57.59
48517;BME280;34310;51.904;4.256;2023-02-26T03:48:16;102269.94;;;15.45;57.50
48517;BME280;34310;51.904;4.256;2023-02-26T03:50:48;102273.31;;;15.44;57.55
48517;BME280;34310;51.904;4.256;2023-02-26T03:53:26;102282.03;;;15.44;57.45
48517;BME280;34310;51.904;4.256;2023-02-26T03:56:06;102291.66;;;15.45;57.64
48517;BME280;34310;51.904;4.256;2023-02-26T03:58:34;102288.03;;;15.43;57.59
48517;BME280;34310;51.904;4.256;2023-02-26T04:01:12;102295.84;;;15.43;57.49
48517;BME280;34310;51.904;4.256;2023-02-26T04:03:58;102301.94;;;15.44;57.42
48517;BME280;34310;51.904;4.256;2023-02-26T04:06:27;102294.81;;;15.41;57.33
48517;BME280;34310;51.904;4.256;2023-02-26T04:08:55;102300.03;;;15.41;57.37
48517;BME280;34310;51.904;4.256;2023-02-26T04:11:24;102304.22;;;15.39;57.26
48517;BME280;34310;51.904;4.256;2023-02-26T04:13:51;102305.00;;;15.38;57.33
48517;BME280;34310;51.904;4.256;2023-02-26T04:16:19;102307.63;;;15.38;57.28
48517;BME280;34310;51.904;4.256;2023-02-26T04:18:46;102308.41;;;15.37;57.33
48517;BME280;34310;51.904;4.256;2023-02-26T04:21:19;102312.72;;;15.37;57.40
48517;BME280;34310;51.904;4.256;2023-02-26T04:23:47;102317.00;;;15.36;57.22
48517;BME280;34310;51.904;4.256;2023-02-26T04:26:14;102313.38;;;15.34;57.32
48517;BME280;34310;51.904;4.256;2023-02-26T04:28:42;102318.59;;;15.34;57.16
48517;BME280;34310;51.904;4.256;2023-02-26T04:31:09;102311.56;;;15.33;57.30
48517;BME280;34310;51.904;4.256;2023-02-26T04:33:37;102317.41;;;15.31;57.24
48517;BME280;34310;51.904;4.256;2023-02-26T04:36:04;102326.13;;;15.31;57.35
48517;BME280;34310;51.904;4.256;2023-02-26T04:38:32;102326.81;;;15.29;57.26
48517;BME280;34310;51.904;4.256;2023-02-26T04:40:59;102332.81;;;15.28;57.32
48517;BME280;34310;51.904;4.256;2023-02-26T04:43:27;102332.69;;;15.26;57.14
48517;BME280;34310;51.904;4.256;2023-02-26T04:45:54;102339.59;;;15.26;57.25
48517;BME280;34310;51.904;4.256;2023-02-26T04:48:21;102335.97;;;15.24;57.14
48517;BME280;34310;51.904;4.256;2023-02-26T04:50:49;102323.75;;;15.23;57.22
48517;BME280;34310;51.904;4.256;2023-02-26T04:53:16;102325.34;;;15.21;57.36
48517;BME280;34310;51.904;4.256;2023-02-26T04:55:46;102319.22;;;15.20;57.11
48517;BME280;34310;51.904;4.256;2023-02-26T04:58:13;102326.81;;;15.17;57.40
48517;BME280;34310;51.904;4.256;2023-02-26T05:00:41;102338.78;;;15.15;57.44
48517;BME280;34310;51.904;4.256;2023-02-26T05:03:08;102342.41;;;15.17;57.50
48517;BME280;34310;51.904;4.256;2023-02-26T05:05:36;102342.41;;;15.17;57.70
48517;BME280;34310;51.904;4.256;2023-02-26T05:08:03;102346.94;;;15.19;57.92
48517;BME280;34310;51.904;4.256;2023-02-26T05:10:30;102354.06;;;15.22;58.10
48517;BME280;34310;51.904;4.256;2023-02-26T05:12:58;102346.38;;;15.24;58.00
48517;BME280;34310;51.904;4.256;2023-02-26T05:15:25;102355.22;;;15.26;58.20
48517;BME280;34310;51.904;4.256;2023-02-26T05:17:52;102344.78;;;15.26;58.03
48517;BME280;34310;51.904;4.256;2023-02-26T05:20:20;102347.41;;;15.26;58.25
48517;BME280;34310;51.904;4.256;2023-02-26T05:22:47;102349.22;;;15.27;58.14
48517;BME280;34310;51.904;4.256;2023-02-26T05:25:15;102351.81;;;15.27;58.31
48517;BME280;34310;51.904;4.256;2023-02-26T05:27:42;102355.44;;;15.29;58.09
48517;BME280;34310;51.904;4.256;2023-02-26T05:30:12;102363.13;;;15.27;58.17
48517;BME280;34310;51.904;4.256;2023-02-26T05:32:41;102369.34;;;15.29;58.20
48517;BME280;34310;51.904;4.256;2023-02-26T05:35:09;102365.84;;;15.29;58.11
48517;BME280;34310;51.904;4.256;2023-02-26T05:37:37;102371.94;;;15.29;58.06
48517;BME280;34310;51.904;4.256;2023-02-26T05:40:05;102371.06;;;15.29;58.30
48517;BME280;34310;51.904;4.256;2023-02-26T05:42:35;102384.97;;;15.29;58.28
48517;BME280;34310;51.904;4.256;2023-02-26T05:45:04;102377.03;;;15.28;58.11
48517;BME280;34310;51.904;4.256;2023-02-26T05:47:33;102381.47;;;15.29;58.21
48517;BME280;34310;51.904;4.256;2023-02-26T05:50:01;102392.66;;;15.28;58.20
48517;BME280;34310;51.904;4.256;2023-02-26T05:52:29;102397.06;;;15.29;58.15
48517;BME280;34310;51.904;4.256;2023-02-26T05:54:56;102404.09;;;15.30;58.17
48517;BME280;34310;51.904;4.256;2023-02-26T05:57:24;102399.56;;;15.27;58.05
48517;BME280;34310;51.904;4.256;2023-02-26T05:59:51;102403.84;;;15.27;57.94
48517;BME280;34310;51.904;4.256;2023-02-26T06:02:19;102408.16;;;15.26;58.03
48517;BME280;34310;51.904;4.256;2023-02-26T06:04:46;102413.34;;;15.26;57.92
48517;BME280;34310;51.904;4.256;2023-02-26T06:07:13;102410.75;;;15.26;58.12
48517;BME280;34310;51.904;4.256;2023-02-26T06:09:41;102417.53;;;15.24;57.97
48517;BME280;34310;51.904;4.256;2023-02-26T06:12:08;102425.22;;;15.23;57.98
48517;BME280;34310;51.904;4.256;2023-02-26T06:14:36;102426.03;;;15.22;57.96
48517;BME280;34310;51.904;4.256;2023-02-26T06:17:04;102434.72;;;15.22;57.83
48517;BME280;34310;51.904;4.256;2023-02-26T06:19:31;102433.03;;;15.23;57.87
48517;BME280;34310;51.904;4.256;2023-02-26T06:21:58;102442.53;;;15.22;57.66
48517;BME280;34310;51.904;4.256;2023-02-26T06:24:26;102441.63;;;15.22;57.69
48517;BME280;34310;51.904;4.256;2023-02-26T06:26:53;102441.63;;;15.22;57.63
48517;BME280;34310;51.904;4.256;2023-02-26T06:29:21;102445.94;;;15.21;57.59
48517;BME280;34310;51.904;4.256;2023-02-26T06:31:49;102456.44;;;15.23;57.75
48517;BME280;34310;51.904;4.256;2023-02-26T06:34:17;102458.16;;;15.22;57.48
48517;BME280;34310;51.904;4.256;2023-02-26T06:36:45;102472.97;;;15.23;57.54
48517;BME280;34310;51.904;4.256;2023-02-26T06:39:12;102474.66;;;15.23;57.56
48517;BME280;34310;51.904;4.256;2023-02-26T06:41:40;102478.19;;;15.23;57.60
48517;BME280;34310;51.904;4.256;2023-02-26T06:44:08;102469.47;;;15.23;57.58
48517;BME280;34310;51.904;4.256;2023-02-26T06:46:36;102480.78;;;15.23;57.59
48517;BME280;34310;51.904;4.256;2023-02-26T06:49:04;102485.97;;;15.23;57.62
48517;BME280;34310;51.904;4.256;2023-02-26T06:51:32;102484.16;;;15.22;57.50
48517;BME280;34310;51.904;4.256;2023-02-26T06:53:59;102497.19;;;15.22;57.48
48517;BME280;34310;51.904;4.256;2023-02-26T06:56:27;102497.97;;;15.21;57.38
48517;BME280;34310;51.904;4.256;2023-02-26T06:58:54;102503.16;;;15.21;57.38
48517;BME280;34310;51.904;4.256;2023-02-26T07:01:22;102505.78;;;15.21;57.47
48517;BME280;34310;51.904;4.256;2023-02-26T07:03:50;102516.97;;;15.20;57.38
48517;BME280;34310;51.904;4.256;2023-02-26T07:06:18;102518.66;;;15.19;57.49
48517;BME280;34310;51.904;4.256;2023-02-26T07:08:54;102518.53;;;15.18;57.36
48517;BME280;34310;51.904;4.256;2023-02-26T07:11:22;102532.34;;;15.17;57.38
48517;BME280;34310;51.904;4.256;2023-02-26T07:13:49;102529.63;;;15.15;57.40
48517;BME280;34310;51.904;4.256;2023-02-26T07:16:18;102534.81;;;15.15;57.44
48517;BME280;34310;51.904;4.256;2023-02-26T07:18:45;102539.91;;;15.14;57.27
48517;BME280;34310;51.904;4.256;2023-02-26T07:21:12;102534.59;;;15.12;57.25
48517;BME280;34310;51.904;4.256;2023-02-26T07:23:40;102544.09;;;15.12;57.40
48517;BME280;34310;51.904;4.256;2023-02-26T07:26:07;102557.88;;;15.11;57.24
48517;BME280;34310;51.904;4.256;2023-02-26T07:28:35;102554.38;;;15.10;57.33
48517;BME280;34310;51.904;4.256;2023-02-26T07:31:02;102555.69;;;15.05;57.46
48517;BME280;34310;51.904;4.256;2023-02-26T07:33:30;102560.00;;;15.05;57.46
48517;BME280;34310;51.904;4.256;2023-02-26T07:35:58;102560.22;;;15.08;57.58
48517;BME280;34310;51.904;4.256;2023-02-26T07:38:25;102564.78;;;15.10;57.81
48517;BME280;34310;51.904;4.256;2023-02-26T07:40:56;102566.81;;;15.14;57.92
48517;BME280;34310;51.904;4.256;2023-02-26T07:43:24;102577.34;;;15.16;58.07
48517;BME280;34310;51.904;4.256;2023-02-26T07:45:52;102577.47;;;15.17;58.17
48517;BME280;34310;51.904;4.256;2023-02-26T07:48:20;102570.69;;;15.19;58.25
48517;BME280;34310;51.904;4.256;2023-02-26T07:50:50;102578.63;;;15.21;58.24
48517;BME280;34310;51.904;4.256;2023-02-26T07:53:17;102582.91;;;15.21;57.86
48517;BME280;34310;51.904;4.256;2023-02-26T07:55:45;102582.00;;;15.20;57.69
48517;BME280;34310;51.904;4.256;2023-02-26T07:58:13;102579.41;;;15.20;57.68
48517;BME280;34310;51.904;4.256;2023-02-26T08:00:40;102578.63;;;15.21;57.76
48517;BME280;34310;51.904;4.256;2023-02-26T08:03:08;102583.81;;;15.21;57.54
48517;BME280;34310;51.904;4.256;2023-02-26T08:05:35;102593.44;;;15.22;57.66
48517;BME280;34310;51.904;4.256;2023-02-26T08:08:02;102590.97;;;15.24;57.60
48517;BME280;34310;51.904;4.256;2023-02-26T08:10:30;102584.84;;;15.23;57.76
48517;BME280;34310;51.904;4.256;2023-02-26T08:12:57;102600.59;;;15.25;57.76
48517;BME280;34310;51.904;4.256;2023-02-26T08:15:24;102593.69;;;15.25;57.68
48517;BME280;34310;51.904;4.256;2023-02-26T08:17:52;102600.72;;;15.26;57.70
48517;BME280;34310;51.904;4.256;2023-02-26T08:20:20;102604.34;;;15.28;57.75
48517;BME280;34310;51.904;4.256;2023-02-26T08:22:48;102605.25;;;15.29;57.69
48517;BME280;34310;51.904;4.256;2023-02-26T08:25:16;102613.19;;;15.30;57.62
48517;BME280;34310;51.904;4.256;2023-02-26T08:27:44;102615.78;;;15.30;57.60
48517;BME280;34310;51.904;4.256;2023-02-26T08:30:12;102613.28;;;15.32;57.61
48517;BME280;34310;51.904;4.256;2023-02-26T08:32:39;102625.56;;;15.33;57.52
48517;BME280;34310;51.904;4.256;2023-02-26T08:35:09;102616.06;;;15.33;57.46
48517;BME280;34310;51.904;4.256;2023-02-26T08:37:37;102622.94;;;15.33;57.48
48517;BME280;34310;51.904;4.256;2023-02-26T08:40:06;102632.56;;;15.34;57.56
48517;BME280;34310;51.904;4.256;2023-02-26T08:42:34;102629.19;;;15.35;57.24
48517;BME280;34310;51.904;4.256;2023-02-26T08:45:02;102634.28;;;15.33;57.20
48517;BME280;34310;51.904;4.256;2023-02-26T08:47:29;102643.88;;;15.34;57.34
48517;BME280;34310;51.904;4.256;2023-02-26T08:49:58;102641.28;;;15.34;57.19
48517;BME280;34310;51.904;4.256;2023-02-26T08:52:26;102647.41;;;15.35;57.34
48517;BME280;34310;51.904;4.256;2023-02-26T08:54:53;102652.59;;;15.35;57.15
48517;BME280;34310;51.904;4.256;2023-02-26T08:57:20;102656.13;;;15.35;57.23
48517;BME280;34310;51.904;4.256;2023-02-26T08:59:47;102657.94;;;15.36;57.29
48517;BME280;34310;51.904;4.256;2023-02-26T09:02:15;102662.34;;;15.37;57.24
48517;BME280;34310;51.904;4.256;2023-02-26T09:04:42;102664.16;;;15.38;57.39
48517;BME280;34310;51.904;4.256;2023-02-26T09:07:09;102675.50;;;15.39;57.38
48517;BME280;34310;51.904;4.256;2023-02-26T09:09:37;102667.69;;;15.39;57.43
48517;BME280;34310;51.904;4.256;2023-02-26T09:12:04;102686.94;;;15.41;57.35
48517;BME280;34310;51.904;4.256;2023-02-26T09:14:31;102677.31;;;15.40;57.37
48517;BME280;34310;51.904;4.256;2023-02-26T09:16:59;102689.53;;;15.41;57.55
48517;BME280;34310;51.904;4.256;2023-02-26T09:19:26;102687.84;;;15.41;57.54
48517;BME280;34310;51.904;4.256;2023-02-26T09:21:53;102682.63;;;15.41;57.48
48517;BME280;34310;51.904;4.256;2023-02-26T09:24:21;102692.25;;;15.42;57.71
48517;BME280;34310;51.904;4.256;2023-02-26T09:26:48;102701.88;;;15.43;57.70
48517;BME280;34310;51.904;4.256;2023-02-26T09:29:15;102697.47;;;15.42;57.81
48517;BME280;34310;51.904;4.256;2023-02-26T09:31:43;102687.06;;;15.42;57.72
48517;BME280;34310;51.904;4.256;2023-02-26T09:34:10;102698.38;;;15.43;57.71
48517;BME280;34310;51.904;4.256;2023-02-26T09:36:39;102701.09;;;15.44;57.64
48517;BME280;34310;51.904;4.256;2023-02-26T09:39:06;102709.81;;;15.45;57.72
48517;BME280;34310;51.904;4.256;2023-02-26T09:41:42;102705.50;;;15.45;57.83
48517;BME280;34310;51.904;4.256;2023-02-26T09:44:30;102709.94;;;15.46;57.69
48517;BME280;34310;51.904;4.256;2023-02-26T09:47:12;102719.44;;;15.46;57.70
48517;BME280;34310;51.904;4.256;2023-02-26T09:50:02;102722.94;;;15.46;57.77
48517;BME280;34310;51.904;4.256;2023-02-26T09:55:44;102723.97;;;15.48;57.75
48517;BME280;34310;51.904;4.256;2023-02-26T09:58:35;102732.69;;;15.49;57.76
48517;BME280;34310;51.904;4.256;2023-02-26T10:06:43;102744.94;;;15.50;57.71
48517;BME280;34310;51.904;4.256;2023-02-26T10:09:36;102744.94;;;15.50;57.55
48517;BME280;34310;51.904;4.256;2023-02-26T10:12:18;102749.34;;;15.51;57.63
48517;BME280;34310;51.904;4.256;2023-02-26T10:20:18;102759.09;;;15.54;57.59
48517;BME280;34310;51.904;4.256;2023-02-26T10:25:45;102769.63;;;15.55;57.54
48517;BME280;34310;51.904;4.256;2023-02-26T10:31:51;102770.53;;;15.56;57.59
48517;BME280;34310;51.904;4.256;2023-02-26T10:34:31;102771.47;;;15.56;57.78
48517;BME280;34310;51.904;4.256;2023-02-26T10:37:22;102776.78;;;15.58;57.63
48517;BME280;34310;51.904;4.256;2023-02-26T10:40:13;102776.94;;;15.59;57.65
48517;BME280;34310;51.904;4.256;2023-02-26T10:51:19;102777.22;;;15.62;57.49
48517;BME280;34310;51.904;4.256;2023-02-26T10:53:54;102781.66;;;15.63;57.56
48517;BME280;34310;51.904;4.256;2023-02-26T10:56:30;102781.66;;;15.63;57.60
48517;BME280;34310;51.904;4.256;2023-02-26T10:58:58;102781.75;;;15.65;57.56
48517;BME280;34310;51.904;4.256;2023-02-26T11:01:28;102783.59;;;15.66;57.56
48517;BME280;34310;51.904;4.256;2023-02-26T11:04:02;102787.22;;;15.68;57.46
48517;BME280;34310;51.904;4.256;2023-02-26T11:06:41;102784.63;;;15.68;57.58
48517;BME280;34310;51.904;4.256;2023-02-26T11:09:34;102780.44;;;15.70;57.51
48517;BME280;34310;51.904;4.256;2023-02-26T11:14:40;102783.16;;;15.71;57.58
48517;BME280;34310;51.904;4.256;2023-02-26T11:17:15;102795.41;;;15.72;57.55
48517;BME280;34310;51.904;4.256;2023-02-26T11:22:21;102783.41;;;15.74;57.37
48517;BME280;34310;51.904;4.256;2023-02-26T11:24:51;102788.75;;;15.76;57.37
48517;BME280;34310;51.904;4.256;2023-02-26T11:27:24;102773.13;;;15.76;57.51
48517;BME280;34310;51.904;4.256;2023-02-26T11:29:57;102780.13;;;15.77;57.53
48517;BME280;34310;51.904;4.256;2023-02-26T11:32:33;102783.78;;;15.79;57.31
48517;BME280;34310;51.904;4.256;2023-02-26T11:35:01;102778.56;;;15.79;57.33
48517;BME280;34310;51.904;4.256;2023-02-26T11:37:33;102776.88;;;15.79;57.19
48517;BME280;34310;51.904;4.256;2023-02-26T11:40:15;102782.06;;;15.79;57.27
48517;BME280;34310;51.904;4.256;2023-02-26T11:42:53;102778.69;;;15.80;57.22
48517;BME280;34310;51.904;4.256;2023-02-26T11:45:22;102784.03;;;15.82;57.28
48517;BME280;34310;51.904;4.256;2023-02-26T11:48:03;102783.09;;;15.82;57.27
48517;BME280;34310;51.904;4.256;2023-02-26T11:50:40;102790.13;;;15.83;57.08
48517;BME280;34310;51.904;4.256;2023-02-26T11:53:31;102780.63;;;15.83;57.24
48517;BME280;34310;51.904;4.256;2023-02-26T11:56:01;102785.84;;;15.83;57.11
48517;BME280;34310;51.904;4.256;2023-02-26T11:58:34;102778.03;;;15.83;57.13
48517;BME280;34310;51.904;4.256;2023-02-26T12:01:05;102779.84;;;15.84;57.08
48517;BME280;34310;51.904;4.256;2023-02-26T12:03:36;102779.06;;;15.85;57.06
48517;BME280;34310;51.904;4.256;2023-02-26T12:06:16;102772.16;;;15.86;57.22
48517;BME280;34310;51.904;4.256;2023-02-26T12:08:44;102776.56;;;15.87;57.01
48517;BME280;34310;51.904;4.256;2023-02-26T12:11:45;102767.97;;;15.88;57.22
48517;BME280;34310;51.904;4.256;2023-02-26T12:17:33;102771.75;;;15.91;57.06
48517;BME280;34310;51.904;4.256;2023-02-26T12:25:50;102759.88;;;15.95;57.05
48517;BME280;34310;51.904;4.256;2023-02-26T12:37:07;102758.66;;;16.01;57.25
48517;BME280;34310;51.904;4.256;2023-02-26T12:42:17;102758.91;;;16.04;57.23
48517;BME280;34310;51.904;4.256;2023-02-26T12:50:51;102760.16;;;16.09;56.90
48517;BME280;34310;51.904;4.256;2023-02-26T12:53:56;102762.91;;;16.11;56.82
48517;BME280;34310;51.904;4.256;2023-02-26T12:56:47;102764.72;;;16.12;56.95
48517;BME280;34310;51.904;4.256;2023-02-26T13:03:12;102763.25;;;16.16;56.82
48517;BME280;34310;51.904;4.256;2023-02-26T13:14:17;102784.59;;;16.22;56.55
48517;BME280;34310;51.904;4.256;2023-02-26T13:16:53;102786.44;;;16.23;56.54
48517;BME280;34310;51.904;4.256;2023-02-26T13:19:49;102790.06;;;16.25;56.67
48517;BME280;34310;51.904;4.256;2023-02-26T13:22:34;102790.19;;;16.26;56.50
48517;BME280;34310;51.904;4.256;2023-02-26T13:25:16;102776.34;;;16.27;56.51
48517;BME280;34310;51.904;4.256;2023-02-26T13:27:46;102785.31;;;16.31;56.32
48517;BME280;34310;51.904;4.256;2023-02-26T13:30:21;102778.41;;;16.31;56.29
48517;BME280;34310;51.904;4.256;2023-02-26T13:32:53;102779.44;;;16.33;56.25
48517;BME280;34310;51.904;4.256;2023-02-26T13:37:57;102771.84;;;16.36;55.93
48517;BME280;34310;51.904;4.256;2023-02-26T13:40:45;102778.09;;;16.38;56.09
48517;BME280;34310;51.904;4.256;2023-02-26T13:43:50;102768.69;;;16.40;55.95
48517;BME280;34310;51.904;4.256;2023-02-26T13:46:25;102765.41;;;16.43;56.01
48517;BME280;34310;51.904;4.256;2023-02-26T13:51:37;102773.47;;;16.46;56.09
48517;BME280;34310;51.904;4.256;2023-02-26T13:56:53;102759.91;;;16.50;55.77
48517;BME280;34310;51.904;4.256;2023-02-26T13:59:37;102766.03;;;16.51;55.94
48517;BME280;34310;51.904;4.256;2023-02-26T14:02:34;102771.47;;;16.54;55.76
48517;BME280;34310;51.904;4.256;2023-02-26T14:05:09;102766.38;;;16.55;55.64
48517;BME280;34310;51.904;4.256;2023-02-26T14:10:53;102757.75;;;16.56;55.73
48517;BME280;34310;51.904;4.256;2023-02-26T14:13:30;102770.00;;;16.57;55.54
48517;BME280;34310;51.904;4.256;2023-02-26T14:16:21;102775.47;;;16.60;55.64
48517;BME280;34310;51.904;4.256;2023-02-26T14:18:50;102765.03;;;16.60;55.55
48517;BME280;34310;51.904;4.256;2023-02-26T14:21:35;102761.75;;;16.63;55.67
48517;BME280;34310;51.904;4.256;2023-02-26T14:26:36;102768.13;;;16.66;55.63
48517;BME280;34310;51.904;4.256;2023-02-26T14:34:29;102771.09;;;16.71;55.59
48517;BME280;34310;51.904;4.256;2023-02-26T14:37:00;102772.91;;;16.72;55.49
48517;BME280;34310;51.904;4.256;2023-02-26T14:39:53;102770.31;;;16.72;55.55
48517;BME280;34310;51.904;4.256;2023-02-26T14:44:57;102773.13;;;16.75;55.21
48517;BME280;34310;51.904;4.256;2023-02-26T14:47:28;102773.13;;;16.75;55.34
48517;BME280;34310;51.904;4.256;2023-02-26T14:49:55;102773.25;;;16.77;55.24
48517;BME280;34310;51.904;4.256;2023-02-26T15:01:12;102770.91;;;16.80;54.98
48517;BME280;34310;51.904;4.256;2023-02-26T15:06:49;102767.50;;;16.81;54.95
48517;BME280;34310;51.904;4.256;2023-02-26T15:10:10;102772.84;;;16.82;54.85
48517;BME280;34310;51.904;4.256;2023-02-26T15:26:05;102761.63;;;16.83;54.83
48517;BME280;34310;51.904;4.256;2023-02-26T15:28:36;102763.44;;;16.84;54.80
48517;BME280;34310;51.904;4.256;2023-02-26T15:31:05;102760.69;;;16.83;54.51
48517;BME280;34310;51.904;4.256;2023-02-26T15:33:33;102757.31;;;16.84;54.61
48517;BME280;34310;51.904;4.256;2023-02-26T15:36:11;102767.75;;;16.84;54.58
48517;BME280;34310;51.904;4.256;2023-02-26T15:38:47;102766.84;;;16.83;54.50
48517;BME280;34310;51.904;4.256;2023-02-26T15:41:16;102762.41;;;16.82;54.38
48517;BME280;34310;51.904;4.256;2023-02-26T15:44:01;102764.22;;;16.83;54.17
48517;BME280;34310;51.904;4.256;2023-02-26T15:46:35;102765.91;;;16.83;54.30
48517;BME280;34310;51.904;4.256;2023-02-26T15:49:09;102768.53;;;16.83;54.03
48517;BME280;34310;51.904;4.256;2023-02-26T15:51:39;102779.75;;;16.82;54.06
48517;BME280;34310;51.904;4.256;2023-02-26T15:54:14;102777.94;;;16.81;54.15
48517;BME280;34310;51.904;4.256;2023-02-26T15:56:43;102781.34;;;16.80;54.06
48517;BME280;34310;51.904;4.256;2023-02-26T15:59:13;102785.78;;;16.81;54.08
48517;BME280;34310;51.904;4.256;2023-02-26T16:01:43;102781.22;;;16.78;54.00
48517;BME280;34310;51.904;4.256;2023-02-26T16:04:14;102779.53;;;16.79;54.13
48517;BME280;34310;51.904;4.256;2023-02-26T16:06:54;102783.84;;;16.78;54.01
48517;BME280;34310;51.904;4.256;2023-02-26T16:09:28;102780.16;;;16.76;54.12
48517;BME280;34310;51.904;4.256;2023-02-26T16:12:05;102783.56;;;16.75;54.12